createdAt,value
2022-12-15T00:02:19.486Z,1.18
2022-12-15T00:05:07.572Z,1.22
2022-12-15T00:07:53.474Z,1.20
2022-12-15T00:10:38.867Z,1.20
2022-12-15T00:13:31.346Z,1.24
2022-12-15T00:16:16.939Z,1.21
2022-12-15T00:19:01.900Z,1.14
2022-12-15T00:21:47.216Z,1.22
2022-12-15T00:24:32.171Z,1.22
2022-12-15T00:27:17.037Z,1.25
2022-12-15T00:30:02.476Z,1.16
2022-12-15T00:32:50.098Z,1.09
2022-12-15T00:35:35.455Z,1.18
2022-12-15T00:38:27.927Z,1.15
2022-12-15T00:40:59.155Z,1.26
2022-12-15T00:43:29.712Z,1.20
2022-12-15T00:46:15.385Z,1.16
2022-12-15T00:48:44.560Z,1.24
2022-12-15T00:51:11.765Z,1.28
2022-12-15T00:53:56.935Z,1.04
2022-12-15T00:56:42.590Z,1.16
2022-12-15T00:59:27.967Z,1.12
2022-12-15T01:02:13.318Z,1.11
2022-12-15T01:04:58.537Z,0.98
2022-12-15T01:07:43.845Z,0.89
2022-12-15T01:10:34.784Z,0.91
2022-12-15T01:13:19.892Z,0.93
2022-12-15T01:16:04.759Z,0.95
2022-12-15T01:18:52.129Z,0.98
2022-12-15T01:21:24.629Z,0.90
2022-12-15T01:23:52.286Z,0.87
2022-12-15T01:26:19.122Z,0.93
2022-12-15T01:28:45.671Z,0.90
2022-12-15T01:31:12.383Z,0.89
2022-12-15T01:33:43.664Z,1.07
2022-12-15T01:36:11.041Z,0.95
2022-12-15T01:38:37.671Z,0.99
2022-12-15T01:41:09.374Z,0.85
2022-12-15T01:43:38.029Z,0.76
2022-12-15T01:46:34.153Z,0.84
2022-12-15T01:49:15.757Z,0.81
2022-12-15T01:51:50.366Z,0.88
2022-12-15T01:54:26.262Z,0.79
2022-12-15T01:56:56.753Z,0.88
2022-12-15T01:59:30.208Z,0.77
2022-12-15T02:01:57.013Z,0.72
2022-12-15T02:04:24.468Z,0.85
2022-12-15T02:06:53.010Z,0.79
2022-12-15T02:09:23.527Z,0.77
2022-12-15T02:12:25.542Z,0.85
2022-12-15T02:14:54.954Z,0.78
2022-12-15T02:17:39.833Z,0.92
2022-12-15T02:20:18.060Z,0.79
2022-12-15T02:22:56.933Z,0.81
2022-12-15T02:25:51.163Z,0.89
2022-12-15T02:28:31.782Z,0.91
2022-12-15T02:31:28.063Z,0.85
2022-12-15T02:34:03.909Z,0.80
2022-12-15T02:36:38.642Z,0.82
2022-12-15T02:39:06.072Z,0.80
2022-12-15T02:41:35.374Z,0.84
2022-12-15T02:44:09.856Z,0.79
2022-12-15T02:47:13.232Z,0.79
2022-12-15T02:49:54.918Z,0.80
2022-12-15T02:52:40.002Z,0.73
2022-12-15T02:55:24.799Z,0.75
2022-12-15T02:57:58.309Z,0.80
2022-12-15T03:00:24.797Z,0.76
2022-12-15T03:02:54.705Z,0.76
2022-12-15T03:05:22.988Z,0.79
2022-12-15T03:07:54.278Z,0.73
2022-12-15T03:10:24.205Z,0.74
2022-12-15T03:12:51.384Z,0.73
2022-12-15T03:15:18.775Z,0.83
2022-12-15T03:17:45.330Z,0.79
2022-12-15T03:20:12.043Z,0.65
2022-12-15T03:22:38.586Z,0.65
2022-12-15T03:25:08.009Z,0.52
2022-12-15T03:27:35.565Z,0.49
2022-12-15T03:30:02.041Z,0.42
2022-12-15T03:32:31.754Z,0.60
2022-12-15T03:34:58.204Z,0.49
2022-12-15T03:37:24.728Z,0.55
2022-12-15T03:39:51.172Z,0.44
2022-12-15T03:42:37.593Z,0.47
2022-12-15T03:45:04.629Z,0.52
2022-12-15T03:47:32.066Z,0.52
2022-12-15T03:49:58.529Z,0.51
2022-12-15T03:52:25.484Z,0.49
2022-12-15T03:54:51.941Z,0.49
2022-12-15T03:57:20.725Z,0.39
2022-12-15T03:59:47.169Z,0.32
2022-12-15T04:02:13.839Z,0.52
2022-12-15T04:04:40.501Z,0.37
2022-12-15T04:07:06.939Z,0.46
2022-12-15T04:09:33.391Z,0.36
2022-12-15T04:11:59.804Z,0.27
2022-12-15T04:14:26.250Z,0.19
2022-12-15T04:16:58.076Z,0.25
2022-12-15T04:19:43.293Z,0.23
2022-12-15T04:22:14.940Z,0.27
2022-12-15T04:25:02.770Z,0.26
2022-12-15T04:27:47.740Z,0.07
2022-12-15T04:30:33.034Z,0.14
2022-12-15T04:33:19.139Z,0.07
2022-12-15T04:36:04.866Z,0.20
2022-12-15T04:38:52.235Z,0.08
2022-12-15T04:41:39.663Z,0.22
2022-12-15T04:44:24.871Z,0.14
2022-12-15T04:47:12.164Z,0.07
2022-12-15T04:49:57.171Z,0.15
2022-12-15T04:52:42.493Z,0.27
2022-12-15T04:55:27.805Z,0.11
2022-12-15T04:58:12.587Z,0.06
2022-12-15T05:00:57.395Z,0.00
2022-12-15T05:03:42.790Z,0.03
2022-12-15T05:06:27.581Z,0.04
2022-12-15T05:09:15.119Z,0.12
2022-12-15T05:11:59.852Z,0.13
2022-12-15T05:14:44.774Z,0.07
2022-12-15T05:17:38.293Z,0.07
2022-12-15T05:20:26.856Z,0.08
2022-12-15T05:23:13.840Z,0.02
2022-12-15T05:25:58.529Z,-0.09
2022-12-15T05:28:43.364Z,0.10
2022-12-15T05:31:28.703Z,-0.07
2022-12-15T05:34:02.618Z,-0.16
2022-12-15T05:36:34.274Z,-0.19
2022-12-15T05:39:03.968Z,-0.09
2022-12-15T05:41:30.514Z,-0.05
2022-12-15T05:43:56.992Z,0.06
2022-12-15T05:46:23.558Z,-0.04
2022-12-15T05:48:50.072Z,-0.02
2022-12-15T05:51:16.533Z,0.05
2022-12-15T05:53:42.993Z,0.01
2022-12-15T05:56:12.307Z,-0.10
2022-12-15T05:58:44.756Z,-0.05
2022-12-15T06:01:14.937Z,0.08
2022-12-15T06:03:42.644Z,-0.10
2022-12-15T06:06:10.600Z,-0.09
2022-12-15T06:08:39.135Z,0.13
2022-12-15T06:11:06.703Z,-0.02
2022-12-15T06:13:37.155Z,-0.02
2022-12-15T06:16:10.086Z,-0.05
2022-12-15T06:18:41.145Z,-0.14
2022-12-15T06:21:10.594Z,0.07
2022-12-15T06:23:37.118Z,-0.04
2022-12-15T06:26:12.605Z,-0.03
2022-12-15T06:28:41.879Z,-0.05
2022-12-15T06:31:10.142Z,-0.08
2022-12-15T06:33:36.858Z,-0.10
2022-12-15T06:36:07.868Z,-0.03
2022-12-15T06:38:35.182Z,-0.01
2022-12-15T06:41:03.472Z,-0.08
2022-12-15T06:43:31.627Z,-0.09
2022-12-15T06:45:58.396Z,-0.20
2022-12-15T06:48:25.019Z,-0.21
2022-12-15T06:50:54.638Z,-0.13
2022-12-15T06:53:22.944Z,-0.21
2022-12-15T06:55:50.233Z,-0.19
2022-12-15T06:58:17.916Z,-0.06
2022-12-15T07:00:46.445Z,-0.05
2022-12-15T07:03:16.209Z,-0.04
2022-12-15T07:05:44.246Z,-0.06
2022-12-15T07:08:12.195Z,-0.15
2022-12-15T07:10:40.406Z,-0.15
2022-12-15T07:13:12.503Z,-0.19
2022-12-15T07:15:40.356Z,-0.18
2022-12-15T07:18:10.379Z,-0.26
2022-12-15T07:20:36.839Z,-0.28
2022-12-15T07:23:09.507Z,-0.22
2022-12-15T07:25:36.801Z,-0.27
2022-12-15T07:28:03.583Z,-0.22
2022-12-15T07:30:35.122Z,-0.22
2022-12-15T07:33:07.674Z,-0.28
2022-12-15T07:35:34.132Z,-0.25
2022-12-15T07:38:00.561Z,-0.22
2022-12-15T07:40:27.166Z,-0.18
2022-12-15T07:42:53.654Z,-0.21
2022-12-15T07:45:20.322Z,-0.18
2022-12-15T07:47:53.476Z,-0.03
2022-12-15T07:50:22.201Z,-0.14
2022-12-15T07:52:50.691Z,-0.10
2022-12-15T07:55:17.150Z,-0.06
2022-12-15T07:57:45.846Z,-0.07
2022-12-15T08:00:14.794Z,-0.03
2022-12-15T08:02:44.251Z,-0.06
2022-12-15T08:05:10.897Z,0.08
2022-12-15T08:07:37.451Z,0.02
2022-12-15T08:10:04.268Z,0.03
2022-12-15T08:12:31.377Z,0.02
2022-12-15T08:14:57.820Z,0.09
2022-12-15T08:17:24.297Z,0.19
2022-12-15T08:19:53.466Z,0.15
2022-12-15T08:22:23.621Z,0.20
2022-12-15T08:24:50.140Z,0.18
2022-12-15T08:27:16.622Z,0.17
2022-12-15T08:29:51.845Z,0.17
2022-12-15T08:32:18.577Z,0.20
2022-12-15T08:34:47.273Z,0.11
2022-12-15T08:37:14.215Z,0.28
2022-12-15T08:39:40.723Z,0.33
2022-12-15T08:42:07.168Z,0.21
2022-12-15T08:44:33.932Z,0.17
2022-12-15T08:47:00.490Z,0.24
2022-12-15T08:49:26.963Z,0.30
2022-12-15T08:51:53.435Z,0.17
2022-12-15T08:54:21.176Z,0.26
2022-12-15T08:56:48.041Z,0.30
2022-12-15T08:59:14.506Z,0.31
2022-12-15T09:01:41.674Z,0.37
2022-12-15T09:04:08.392Z,0.55
2022-12-15T09:06:36.810Z,0.47
2022-12-15T09:09:08.518Z,0.36
2022-12-15T09:11:37.701Z,0.32
2022-12-15T09:14:04.200Z,0.27
2022-12-15T09:16:31.043Z,0.26
2022-12-15T09:18:59.263Z,0.46
2022-12-15T09:21:29.384Z,0.20
2022-12-15T09:24:01.820Z,0.29
2022-12-15T09:26:33.714Z,0.35
2022-12-15T09:29:01.867Z,0.34
2022-12-15T09:31:33.163Z,0.56
2022-12-15T09:34:00.970Z,0.59
2022-12-15T09:36:32.511Z,0.60
2022-12-15T09:39:01.905Z,0.60
2022-12-15T09:41:32.259Z,0.61
2022-12-15T09:44:12.266Z,0.66
2022-12-15T09:46:50.705Z,0.55
2022-12-15T09:49:41.945Z,0.61
2022-12-15T09:52:16.802Z,0.61
2022-12-15T09:54:44.922Z,0.52
2022-12-15T09:57:20.638Z,0.48
2022-12-15T10:00:11.269Z,0.68
2022-12-15T10:02:59.397Z,0.60
2022-12-15T10:06:07.170Z,0.66
2022-12-15T10:08:31.570Z,0.51
2022-12-15T10:11:05.714Z,0.65
2022-12-15T10:13:38.114Z,0.76
2022-12-15T10:16:16.448Z,0.66
2022-12-15T10:18:56.042Z,0.77
2022-12-15T10:21:28.094Z,0.76
2022-12-15T10:24:08.030Z,0.63
2022-12-15T10:26:35.440Z,0.75
2022-12-15T10:29:20.661Z,0.71
2022-12-15T10:31:58.085Z,0.60
2022-12-15T10:34:37.922Z,0.56
2022-12-15T10:37:05.343Z,0.71
2022-12-15T10:39:41.050Z,0.77
2022-12-15T10:42:16.828Z,0.82
2022-12-15T10:44:50.544Z,0.74
2022-12-15T10:47:32.476Z,0.67
2022-12-15T10:50:24.990Z,0.78
2022-12-15T10:52:51.892Z,0.86
2022-12-15T10:55:41.541Z,0.75
2022-12-15T10:58:20.668Z,0.80
2022-12-15T11:00:50.917Z,0.82
2022-12-15T11:03:26.789Z,0.68
2022-12-15T11:05:55.949Z,0.68
2022-12-15T11:08:24.446Z,0.79
2022-12-15T11:11:15.720Z,0.76
2022-12-15T11:14:02.607Z,0.88
2022-12-15T11:16:31.466Z,1.00
2022-12-15T11:19:26.190Z,1.04
2022-12-15T11:21:59.916Z,1.15
2022-12-15T11:24:49.530Z,1.17
2022-12-15T11:27:28.484Z,0.92
2022-12-15T11:30:02.949Z,0.93
2022-12-15T11:32:34.056Z,0.92
2022-12-15T11:35:00.996Z,0.87
2022-12-15T11:37:34.530Z,1.07
2022-12-15T11:40:41.049Z,1.16
2022-12-15T11:43:16.921Z,1.17
2022-12-15T11:46:17.383Z,1.27
2022-12-15T11:49:33.843Z,1.29
2022-12-15T11:52:24.091Z,1.16
2022-12-15T11:55:07.901Z,1.11
2022-12-15T11:57:53.058Z,1.23
2022-12-15T12:00:21.429Z,1.20
2022-12-15T12:03:06.712Z,1.21
2022-12-15T12:05:42.015Z,1.01
2022-12-15T12:08:38.977Z,1.00
2022-12-15T12:11:23.784Z,0.93
2022-12-15T12:14:23.146Z,1.04
2022-12-15T12:17:17.367Z,0.95
2022-12-15T12:19:53.822Z,0.98
2022-12-15T12:22:39.794Z,1.02
2022-12-15T12:25:18.393Z,1.14
2022-12-15T12:28:00.196Z,1.06
2022-12-15T12:30:33.329Z,1.08
2022-12-15T12:33:16.231Z,1.16
2022-12-15T12:35:47.315Z,1.13
2022-12-15T12:38:20.211Z,1.07
2022-12-15T12:41:10.707Z,0.99
2022-12-15T12:43:50.957Z,1.08
2022-12-15T12:46:32.894Z,1.07
2022-12-15T12:49:22.831Z,1.04
2022-12-15T12:51:54.811Z,1.15
2022-12-15T12:54:36.489Z,1.08
2022-12-15T12:57:28.876Z,0.98
2022-12-15T13:00:12.937Z,1.18
2022-12-15T13:02:47.024Z,1.20
2022-12-15T13:05:35.509Z,1.22
2022-12-15T13:08:05.126Z,1.20
2022-12-15T13:10:37.197Z,1.24
2022-12-15T13:13:19.037Z,1.33
2022-12-15T13:15:51.010Z,1.29
2022-12-15T13:18:19.617Z,1.17
2022-12-15T13:20:48.904Z,1.19
2022-12-15T13:23:37.052Z,1.22
2022-12-15T13:26:03.775Z,1.23
2022-12-15T13:28:36.081Z,1.20
2022-12-15T13:31:19.092Z,1.18
2022-12-15T13:33:58.502Z,1.28
2022-12-15T13:36:37.896Z,1.30
2022-12-15T13:39:06.010Z,1.14
2022-12-15T13:41:33.286Z,1.22
2022-12-15T13:44:00.501Z,1.36
2022-12-15T13:46:32.772Z,1.21
2022-12-15T13:49:14.165Z,1.17
2022-12-15T13:51:45.892Z,1.21
2022-12-15T13:54:25.025Z,1.33
2022-12-15T13:56:55.641Z,1.14
2022-12-15T13:59:30.913Z,1.25
2022-12-15T14:01:59.780Z,1.25
2022-12-15T14:04:26.672Z,1.19
2022-12-15T14:07:02.159Z,1.32
2022-12-15T14:09:34.119Z,1.23
2022-12-15T14:12:05.171Z,1.32
2022-12-15T14:14:35.149Z,1.25
2022-12-15T14:17:06.539Z,1.19
2022-12-15T14:19:39.253Z,1.12
2022-12-15T14:22:29.660Z,1.20
2022-12-15T14:25:14.471Z,1.20
2022-12-15T14:27:41.011Z,1.20
2022-12-15T14:30:14.601Z,1.18
2022-12-15T14:32:42.090Z,0.99
2022-12-15T14:35:23.472Z,1.07
2022-12-15T14:37:50.372Z,1.08
2022-12-15T14:40:21.379Z,1.20
2022-12-15T14:42:54.806Z,0.94
2022-12-15T14:45:26.377Z,1.07
2022-12-15T14:48:39.354Z,1.13
2022-12-15T14:50:53.518Z,1.11
2022-12-15T14:53:23.456Z,1.17
2022-12-15T14:55:50.141Z,1.27
2022-12-15T14:58:29.600Z,1.23
2022-12-15T15:00:57.187Z,1.18
2022-12-15T15:03:37.094Z,1.12
2022-12-15T15:06:17.598Z,1.21
2022-12-15T15:08:53.782Z,1.03
2022-12-15T15:11:29.977Z,0.98
2022-12-15T15:14:00.255Z,1.12
2022-12-15T15:16:27.474Z,1.13
2022-12-15T15:18:56.283Z,1.02
2022-12-15T15:21:34.031Z,1.02
2022-12-15T15:24:03.688Z,0.97
2022-12-15T15:26:31.307Z,1.01
2022-12-15T15:28:58.455Z,0.92
2022-12-15T15:31:24.994Z,1.01
2022-12-15T15:33:52.740Z,1.06
2022-12-15T15:36:21.499Z,1.03
2022-12-15T15:38:48.054Z,1.02
2022-12-15T15:41:16.801Z,0.93
2022-12-15T15:43:43.693Z,0.98
2022-12-15T15:46:18.028Z,1.02
2022-12-15T15:48:53.146Z,0.97
2022-12-15T15:51:20.616Z,0.91
2022-12-15T15:53:47.738Z,0.88
2022-12-15T15:56:18.597Z,0.83
2022-12-15T15:58:45.272Z,0.79
2022-12-15T16:01:13.542Z,0.76
2022-12-15T16:03:41.335Z,0.82
2022-12-15T16:06:17.398Z,0.77
2022-12-15T16:08:50.183Z,0.79
2022-12-15T16:11:20.074Z,0.86
2022-12-15T16:13:46.799Z,0.81
2022-12-15T16:16:19.496Z,0.90
2022-12-15T16:18:46.271Z,0.84
2022-12-15T16:21:14.538Z,0.80
2022-12-15T16:23:44.920Z,0.77
2022-12-15T16:26:27.122Z,0.87
2022-12-15T16:28:56.264Z,0.94
2022-12-15T16:31:41.742Z,0.88
2022-12-15T16:34:09.087Z,0.86
2022-12-15T16:36:35.943Z,0.78
2022-12-15T16:39:04.053Z,0.84
2022-12-15T16:41:30.591Z,0.88
2022-12-15T16:43:57.127Z,0.98
2022-12-15T16:46:26.045Z,1.06
2022-12-15T16:48:52.663Z,1.07
2022-12-15T16:51:37.279Z,1.07
2022-12-15T16:54:04.248Z,1.15
2022-12-15T16:56:30.713Z,1.10
2022-12-15T16:59:15.610Z,1.26
2022-12-15T17:01:44.543Z,1.20
2022-12-15T17:04:11.752Z,1.25
2022-12-15T17:06:38.782Z,1.26
2022-12-15T17:09:07.189Z,1.28
2022-12-15T17:11:33.756Z,1.34
2022-12-15T17:14:00.883Z,1.24
2022-12-15T17:16:28.486Z,1.22
2022-12-15T17:18:55.011Z,1.30
2022-12-15T17:21:28.223Z,1.28
2022-12-15T17:24:01.893Z,1.34
2022-12-15T17:26:30.932Z,1.34
2022-12-15T17:29:02.088Z,1.33
2022-12-15T17:31:35.681Z,1.38
2022-12-15T17:34:22.694Z,1.38
2022-12-15T17:36:49.327Z,1.48
2022-12-15T17:39:18.206Z,1.46
2022-12-15T17:42:04.335Z,1.47
2022-12-15T17:44:38.301Z,1.56
2022-12-15T17:47:07.727Z,1.54
2022-12-15T17:49:37.732Z,1.60
2022-12-15T17:52:24.329Z,1.35
2022-12-15T17:54:54.321Z,1.41
2022-12-15T17:57:20.927Z,1.52
2022-12-15T17:59:50.896Z,1.46
2022-12-15T18:02:19.967Z,1.55
2022-12-15T18:04:49.959Z,1.50
2022-12-15T18:07:22.624Z,1.69
2022-12-15T18:09:53.142Z,1.65
2022-12-15T18:12:25.713Z,1.55
2022-12-15T18:14:53.046Z,1.54
2022-12-15T18:17:20.101Z,1.65
2022-12-15T18:19:48.934Z,1.62
2022-12-15T18:22:21.113Z,1.60
2022-12-15T18:24:48.934Z,1.66
2022-12-15T18:27:26.654Z,1.69
2022-12-15T18:29:53.801Z,1.59
2022-12-15T18:32:23.309Z,1.55
2022-12-15T18:34:50.514Z,1.56
2022-12-15T18:37:19.084Z,1.62
2022-12-15T18:39:46.408Z,1.67
2022-12-15T18:42:18.039Z,1.70
2022-12-15T18:44:47.981Z,1.69
2022-12-15T18:47:19.961Z,1.72
2022-12-15T18:49:46.643Z,1.73
2022-12-15T18:52:20.067Z,1.67
2022-12-15T18:54:48.556Z,1.64
2022-12-15T18:57:32.146Z,1.66
2022-12-15T19:00:08.033Z,1.64
2022-12-15T19:02:34.664Z,1.72
2022-12-15T19:05:01.528Z,1.68
2022-12-15T19:07:28.216Z,1.79
2022-12-15T19:09:54.896Z,1.60
2022-12-15T19:12:21.559Z,1.56
2022-12-15T19:14:55.025Z,1.69
2022-12-15T19:17:42.571Z,1.67
2022-12-15T19:20:38.330Z,1.60
2022-12-15T19:23:06.730Z,1.61
2022-12-15T19:25:34.253Z,1.65
2022-12-15T19:28:01.495Z,1.65
2022-12-15T19:30:33.194Z,1.66
2022-12-15T19:33:01.252Z,1.54
2022-12-15T19:35:28.270Z,1.62
2022-12-15T19:37:58.433Z,1.62
2022-12-15T19:40:27.895Z,1.63
2022-12-15T19:42:55.480Z,1.67
2022-12-15T19:45:31.445Z,1.72
2022-12-15T19:47:58.555Z,1.70
2022-12-15T19:50:30.996Z,1.67
2022-12-15T19:53:00.965Z,1.60
2022-12-15T19:55:32.732Z,1.67
2022-12-15T19:58:00.837Z,1.73
2022-12-15T20:00:27.495Z,1.63
2022-12-15T20:02:55.679Z,1.79
2022-12-15T20:05:24.421Z,1.82
2022-12-15T20:07:54.947Z,1.78
2022-12-15T20:10:31.911Z,1.71
2022-12-15T20:13:00.467Z,1.61
2022-12-15T20:15:27.281Z,1.62
2022-12-15T20:17:56.653Z,1.66
2022-12-15T20:20:25.635Z,1.74
2022-12-15T20:22:55.653Z,1.64
2022-12-15T20:25:35.278Z,1.64
2022-12-15T20:28:02.712Z,1.60
2022-12-15T20:30:35.148Z,1.59
2022-12-15T20:33:03.848Z,1.70
2022-12-15T20:35:33.172Z,1.70
2022-12-15T20:38:12.260Z,1.61
2022-12-15T20:40:41.065Z,1.67
2022-12-15T20:43:17.202Z,1.69
2022-12-15T20:45:46.429Z,1.68
2022-12-15T20:48:15.150Z,1.70
2022-12-15T20:50:50.674Z,1.70
2022-12-15T20:53:21.339Z,1.69
2022-12-15T20:55:49.950Z,1.72
2022-12-15T20:58:17.662Z,1.73
2022-12-15T21:00:48.533Z,1.75
2022-12-15T21:03:24.619Z,1.74
2022-12-15T21:05:56.968Z,1.62
2022-12-15T21:08:29.754Z,1.63
2022-12-15T21:11:13.473Z,1.67
2022-12-15T21:13:40.046Z,1.58
2022-12-15T21:16:07.126Z,1.63
2022-12-15T21:19:17.890Z,1.65
2022-12-15T21:21:27.007Z,1.69
2022-12-15T21:23:53.721Z,1.69
2022-12-15T21:26:24.354Z,1.73
2022-12-15T21:28:55.592Z,1.77
2022-12-15T21:31:22.670Z,1.68
2022-12-15T21:33:49.282Z,1.60
2022-12-15T21:36:18.467Z,1.62
2022-12-15T21:38:50.874Z,1.63
2022-12-15T21:41:21.116Z,1.69
2022-12-15T21:43:50.924Z,1.71
2022-12-15T21:46:27.554Z,1.67
2022-12-15T21:49:14.241Z,1.69
2022-12-15T21:51:43.836Z,1.73
2022-12-15T21:54:19.646Z,1.68
2022-12-15T21:56:47.605Z,1.58
2022-12-15T21:59:21.445Z,1.59
2022-12-15T22:01:49.133Z,1.65
2022-12-15T22:04:19.531Z,1.71
2022-12-15T22:06:50.449Z,1.72
2022-12-15T22:09:18.548Z,1.69
2022-12-15T22:11:50.919Z,1.61
2022-12-15T22:14:34.125Z,1.60
2022-12-15T22:17:11.604Z,1.68
2022-12-15T22:19:38.095Z,1.76
2022-12-15T22:22:04.831Z,1.67
2022-12-15T22:24:31.273Z,1.76
2022-12-15T22:26:58.395Z,1.83
2022-12-15T22:29:25.327Z,1.76
2022-12-15T22:31:52.028Z,1.75
2022-12-15T22:34:21.520Z,1.73
2022-12-15T22:36:49.244Z,1.71
2022-12-15T22:39:18.728Z,1.75
2022-12-15T22:41:47.960Z,1.69
2022-12-15T22:44:26.829Z,1.64
2022-12-15T22:46:55.764Z,1.70
2022-12-15T22:49:28.688Z,1.85
2022-12-15T22:51:55.246Z,1.73
2022-12-15T22:54:25.561Z,1.69
2022-12-15T22:56:59.059Z,1.67
2022-12-15T22:59:32.485Z,1.59
2022-12-15T23:02:02.071Z,1.61
2022-12-15T23:04:30.374Z,1.72
2022-12-15T23:07:01.239Z,1.73
2022-12-15T23:09:27.883Z,1.66
2022-12-15T23:11:54.998Z,1.67
2022-12-15T23:14:41.534Z,1.66
2022-12-15T23:17:08.327Z,1.71
2022-12-15T23:19:37.090Z,1.68
2022-12-15T23:22:03.585Z,1.61
2022-12-15T23:24:31.274Z,1.66
2022-12-15T23:26:57.740Z,1.69
2022-12-15T23:29:24.854Z,1.68
2022-12-15T23:31:51.385Z,1.63
2022-12-15T23:34:18.588Z,1.63
2022-12-15T23:36:45.078Z,1.58
2022-12-15T23:39:14.159Z,1.73
2022-12-15T23:41:40.577Z,1.82
2022-12-15T23:44:07.292Z,1.70
2022-12-15T23:46:34.036Z,1.68
2022-12-15T23:49:02.289Z,1.74
2022-12-15T23:51:31.199Z,1.77
2022-12-15T23:53:57.681Z,1.69
2022-12-15T23:56:25.137Z,1.70
2022-12-15T23:58:57.202Z,1.69
